Airfield :
LOGIN :

Register | Disclaimer

   EN    FR    IT 

 










Legend :    VFR   Marginal VFR   IFR   Intensive IFR   Very Intensive IFR
Visi :
Ceiling :
>= 8 km
>= 3000ft
5 to 8 km
1000 to 3000 ft
1500m to 5 km
500 to 1000 ft
800 to 1500m
200 to 500 ft
< 800m
< 200 ft
Symbols :   Thunderstorms  Fog  Heavy snow  Heavy precipitations  Wind > 20 kt
SIGMETs :     Misc.  Thunderstorms  Icing  Turbulence  Mountain Waves  Volcanic Ashes






- Airport Elevation : 75 ft
- IATA code : YEO


EGDY - RNAS Yeovilton

CURRENT METAR :
  • 232309Z 14002KT 3000 -DZ OVC009 05/05 Q1026 NOSIG RMK YLO1 YLO1

EXPIRED METARs :
  • 232250Z 11002KT 4000 -DZ OVC009 05/04 Q1027 NOSIG RMK GRN GRN
  • 232220Z 07002KT 4000 -DZ OVC009 05/04 Q1027 NOSIG RMK GRN GRN
  • 232150Z AUTO 07003KT 5000 HZ OVC008/// 06/04 Q1027
  • 232120Z 08002KT 6000 -DZ OVC009 06/04 Q1027 NOSIG RMK GRN GRN
  • 232050Z 09003KT 6000 -DZ OVC010 06/04 Q1027 NOSIG RMK GRN GRN

TAF TAF EGDY
Valid from the 23 at 15:00 until the 24 at 00:00 UTC


231337Z 2315/2324 09004KT 9999 BKN010 OVC015
PROB40
TEMPO 2315/2322 FEW010 OVC015



MET'MAP, your aeronautical weather chart ! - Copyright ORBIFLY December 2007 - Disclaimer

ORBIFLY MET'MAP TEAM :

Programming & Development : Alexandra Zaïnal
Concept & original design : Baudouin d'Aumeries
Assistance for programming : Marc-Olivier Méhu
Technical & hardware support : Manuel Goepfert

Contact : metmap@orbifly.com




SOURCES & CREDITS :

   NOAA